Time;durP1;ratioP1;P1;durP2;ratioP2;P2;SDS_P1;SDS_P2;PMS_P1;PMS_P2;Temp;Humidity;BMP_temperature;BMP_pressure;BME280_temperature;BME280_humidity;BME280_pressure;Samples;Min_cycle;Max_cycle;Signal;HPM_P1;HPM_P2
2021/09/12 00:00:41;;;;;;;13.15;6.47;;;512.30;1587.20;;;;;;4932128;29;20487;-83
2021/09/12 00:03:07;;;;;;;14.02;6.53;;;512.20;1587.20;;;;;;4908705;29;20036;-85
2021/09/12 00:05:33;;;;;;;12.38;5.88;;;512.10;1612.80;;;;;;4907760;29;20028;-84
2021/09/12 00:07:59;;;;;;;12.25;6.70;;;512.10;1612.80;;;;;;4908091;29;20024;-84
2021/09/12 00:10:26;;;;;;;11.63;6.30;;;512.20;1612.80;;;;;;4912632;29;20020;-85
2021/09/12 00:12:52;;;;;;;15.15;7.07;;;512.20;1612.80;;;;;;4917286;29;20044;-82
2021/09/12 00:15:19;;;;;;;14.48;6.93;;;512.20;1612.80;;;;;;4917453;29;20031;-82
2021/09/12 00:17:45;;;;;;;12.77;7.15;;;512.10;1612.80;;;;;;4917931;29;20039;-82
2021/09/12 00:20:12;;;;;;;19.05;8.20;;;512.10;1612.80;;;;;;4901148;29;20032;-83
2021/09/12 00:22:38;;;;;;;21.85;8.68;;;487.30;1638.40;;;;;;4916537;29;20032;-84
2021/09/12 00:25:05;;;;;;;14.90;8.73;;;487.30;1689.60;;;;;;4915715;29;20067;-81
2021/09/12 00:27:31;;;;;;;19.08;9.73;;;487.20;1792.00;;;;;;4917260;29;20032;-82
2021/09/12 00:29:57;;;;;;;18.55;8.48;;;487.10;1817.60;;;;;;4898905;29;20112;-77
2021/09/12 00:32:24;;;;;;;18.08;9.60;;;487.20;1792.00;;;;;;4898312;29;20119;-82
2021/09/12 00:34:50;;;;;;;16.85;9.80;;;487.00;1843.20;;;;;;4926260;29;20560;-84
2021/09/12 00:37:15;;;;;;;16.83;9.52;;;486.90;1843.20;;;;;;4920179;29;20123;-85
2021/09/12 00:39:41;;;;;;;19.27;9.95;;;486.70;1894.40;;;;;;4916852;29;20032;-77
2021/09/12 00:42:07;;;;;;;19.65;10.23;;;486.70;1920.00;;;;;;4923616;29;20466;-83
2021/09/12 00:44:33;;;;;;;18.15;9.55;;;486.50;1945.60;;;;;;4917190;29;20040;-77
2021/09/12 00:47:09;;;;;;;17.48;9.75;;;486.60;1945.60;;;;;;4900014;29;20051;-84
2021/09/12 00:49:35;;;;;;;21.33;10.13;;;486.60;1945.60;;;;;;4935479;29;20020;-83
2021/09/12 00:52:02;;;;;;;16.48;8.85;;;486.40;1945.60;;;;;;4912430;29;20040;-84
2021/09/12 00:54:29;;;;;;;15.27;8.45;;;486.40;1920.00;;;;;;4902982;29;20025;-81
2021/09/12 00:56:56;;;;;;;17.40;9.05;;;486.40;1920.00;;;;;;4907029;29;20088;-78
2021/09/12 00:59:22;;;;;;;17.95;8.18;;;461.70;1920.00;;;;;;4889072;29;20407;-85
2021/09/12 01:01:49;;;;;;;14.65;7.72;;;461.70;1920.00;;;;;;4919978;29;20031;-77
2021/09/12 01:04:15;;;;;;;25.13;8.27;;;461.70;1920.00;;;;;;4919028;29;20144;-82
2021/09/12 01:06:42;;;;;;;12.85;7.80;;;461.60;1920.00;;;;;;4935845;29;20119;-76
2021/09/12 01:09:08;;;;;;;14.00;7.43;;;461.70;1920.00;;;;;;4917441;29;20493;-83
2021/09/12 01:11:34;;;;;;;16.25;7.80;;;461.50;1920.00;;;;;;4916587;29;20056;-81
2021/09/12 01:14:00;;;;;;;18.08;8.20;;;461.60;1920.00;;;;;;4916988;29;20029;-80
2021/09/12 01:16:26;;;;;;;13.38;8.05;;;461.50;1920.00;;;;;;4913674;29;20026;-84
2021/09/12 01:18:53;;;;;;;19.45;8.35;;;461.50;1920.00;;;;;;4910875;29;20021;-82
2021/09/12 01:21:23;;;;;;;13.68;8.02;;;461.50;1945.60;;;;;;4913304;29;20040;-77
2021/09/12 01:23:49;;;;;;;17.85;7.63;;;461.50;1945.60;;;;;;4890899;29;20028;-77
2021/09/12 01:26:41;;;;;;;13.55;7.20;;;461.60;1920.00;;;;;;4903878;29;20036;-78
2021/09/12 01:29:07;;;;;;;15.52;8.75;;;461.60;1945.60;;;;;;4903139;29;20036;-77
2021/09/12 01:31:33;;;;;;;17.50;8.00;;;461.50;1945.60;;;;;;4908530;29;20093;-85
2021/09/12 01:34:00;;;;;;;11.02;7.03;;;461.50;1945.60;;;;;;4908256;29;20028;-84
2021/09/12 01:36:27;;;;;;;14.15;7.60;;;461.60;1920.00;;;;;;4906089;29;20471;-80
2021/09/12 01:38:53;;;;;;;16.33;8.50;;;461.60;1920.00;;;;;;4907126;29;20071;-81
2021/09/12 01:41:19;;;;;;;19.17;7.45;;;461.60;1894.40;;;;;;4907418;29;20029;-85
2021/09/12 01:43:50;;;;;;;15.27;8.45;;;461.50;1894.40;;;;;;4905963;29;20478;-81
2021/09/12 01:46:17;;;;;;;14.50;7.68;;;461.50;1868.80;;;;;;4909741;29;20055;-82
2021/09/12 01:48:43;;;;;;;13.85;8.10;;;461.50;1843.20;;;;;;4906510;29;20025;-79
2021/09/12 01:51:10;;;;;;;12.10;7.78;;;461.50;1843.20;;;;;;4892053;29;20032;-82
2021/09/12 01:53:35;;;;;;;16.30;7.97;;;461.50;1868.80;;;;;;4912216;29;20079;-78
2021/09/12 01:56:02;;;;;;;16.48;7.78;;;461.50;1868.80;;;;;;4909491;29;20104;-89
2021/09/12 01:58:28;;;;;;;14.18;7.05;;;461.50;1868.80;;;;;;4910062;29;20040;-79
2021/09/12 02:00:54;;;;;;;12.00;7.18;;;461.50;1843.20;;;;;;4900746;29;20032;-86
2021/09/12 02:03:19;;;;;;;10.05;7.25;;;461.50;1868.80;;;;;;4904497;29;20043;-82
2021/09/12 02:05:45;;;;;;;12.27;7.15;;;461.50;1868.80;;;;;;4893801;29;20036;-87
2021/09/12 02:08:11;;;;;;;12.80;7.30;;;461.30;1868.80;;;;;;4908789;29;20035;-80
2021/09/12 02:10:37;;;;;;;13.18;7.93;;;461.20;1894.40;;;;;;4909784;29;20082;-76
2021/09/12 02:13:02;;;;;;;10.73;7.07;;;461.00;1894.40;;;;;;4908937;29;20039;-81
2021/09/12 02:15:28;;;;;;;14.55;7.68;;;461.00;1920.00;;;;;;4908540;29;20083;-84
2021/09/12 02:17:54;;;;;;;12.52;7.63;;;460.90;1920.00;;;;;;4911162;29;20070;-81
2021/09/12 02:20:20;;;;;;;12.52;8.27;;;461.10;1894.40;;;;;;4911843;29;20468;-83
2021/09/12 02:22:46;;;;;;;16.17;7.78;;;461.10;1868.80;;;;;;4917453;29;20028;-78
2021/09/12 02:25:11;;;;;;;17.13;8.30;;;461.10;1868.80;;;;;;4912883;29;20029;-83
2021/09/12 02:27:37;;;;;;;11.43;7.60;;;461.10;1868.80;;;;;;4908783;29;20028;-78
2021/09/12 02:30:05;;;;;;;17.05;8.25;;;461.10;1894.40;;;;;;4911499;29;20056;-78
2021/09/12 02:32:31;;;;;;;11.18;7.47;;;461.10;1894.40;;;;;;4892789;29;20028;-79
2021/09/12 02:34:57;;;;;;;13.65;8.32;;;461.00;1894.40;;;;;;4893686;29;20035;-76
2021/09/12 02:37:23;;;;;;;16.85;7.45;;;461.10;1894.40;;;;;;4908762;29;20024;-85
2021/09/12 02:39:49;;;;;;;12.75;7.47;;;461.10;1894.40;;;;;;4911487;29;20033;-77
2021/09/12 02:42:15;;;;;;;17.55;7.82;;;461.00;1894.40;;;;;;4908362;29;20025;-83
2021/09/12 02:44:40;;;;;;;12.75;8.35;;;461.00;1894.40;;;;;;4908256;29;20140;-81
2021/09/12 02:47:06;;;;;;;17.42;8.68;;;460.90;1894.40;;;;;;4893688;29;20118;-88
2021/09/12 02:49:32;;;;;;;13.18;8.20;;;460.90;1894.40;;;;;;4912731;29;20024;-78
2021/09/12 02:51:58;;;;;;;15.25;8.52;;;460.80;1920.00;;;;;;4902259;29;20406;-78
2021/09/12 02:54:24;;;;;;;16.88;8.93;;;460.80;1920.00;;;;;;4893138;29;20036;-84
2021/09/12 02:56:49;;;;;;;15.32;8.95;;;460.80;1920.00;;;;;;4912734;29;20047;-77
2021/09/12 02:59:15;;;;;;;15.13;7.95;;;460.80;1945.60;;;;;;4937943;29;20024;-76
2021/09/12 03:01:41;;;;;;;12.45;7.72;;;460.80;1996.80;;;;;;4937292;29;20043;-80
2021/09/12 03:04:07;;;;;;;14.20;7.63;;;460.80;2022.40;;;;;;4937646;29;20028;-77
2021/09/12 03:06:32;;;;;;;15.57;8.82;;;460.80;2022.40;;;;;;4937862;29;20111;-85
2021/09/12 03:08:58;;;;;;;14.40;8.35;;;436.00;2048.00;;;;;;4921157;29;20095;-85
2021/09/12 03:11:24;;;;;;;11.93;8.25;;;436.00;2048.00;;;;;;4919633;29;20480;-77
2021/09/12 03:13:49;;;;;;;16.38;8.18;;;436.10;2048.00;;;;;;4937845;29;20033;-86
2021/09/12 03:16:15;;;;;;;15.05;7.72;;;436.10;2048.00;;;;;;4937426;29;20034;-77
2021/09/12 03:18:42;;;;;;;12.30;6.90;;;436.10;2022.40;;;;;;4937652;29;20034;-77
2021/09/12 03:21:08;;;;;;;14.38;9.00;;;436.10;2048.00;;;;;;4907126;29;20111;-83
2021/09/12 03:23:33;;;;;;;14.27;8.68;;;436.00;2022.40;;;;;;4886782;29;20809;-86
2021/09/12 03:25:59;;;;;;;13.68;7.63;;;435.90;2022.40;;;;;;4937634;29;20040;-78
2021/09/12 03:28:25;;;;;;;14.50;8.48;;;435.90;2022.40;;;;;;4937324;29;20026;-78
2021/09/12 03:30:50;;;;;;;13.88;7.88;;;435.90;2048.00;;;;;;4936913;29;20478;-78
2021/09/12 03:33:16;;;;;;;15.32;8.50;;;435.80;2022.40;;;;;;4937497;29;20477;-77
2021/09/12 03:35:43;;;;;;;19.25;8.65;;;435.70;2022.40;;;;;;4937497;29;20035;-79
2021/09/12 03:38:09;;;;;;;19.27;8.38;;;435.50;2048.00;;;;;;4935831;29;20030;-78
2021/09/12 03:40:34;;;;;;;11.40;7.82;;;435.40;2048.00;;;;;;4937350;29;20034;-77
2021/09/12 03:43:01;;;;;;;13.00;8.02;;;435.40;2048.00;;;;;;4937139;29;20110;-77
2021/09/12 03:45:26;;;;;;;12.43;8.32;;;435.40;2048.00;;;;;;4919925;29;20027;-78
2021/09/12 03:47:52;;;;;;;12.70;8.27;;;435.40;2073.60;;;;;;4936047;29;20512;-78
2021/09/12 03:50:18;;;;;;;15.80;8.15;;;435.40;2048.00;;;;;;4935898;29;20035;-84
2021/09/12 03:52:44;;;;;;;17.30;8.20;;;435.40;2073.60;;;;;;4919865;29;20078;-84
2021/09/12 03:55:10;;;;;;;13.70;8.88;;;435.50;2073.60;;;;;;4937207;29;20472;-77
2021/09/12 03:57:36;;;;;;;21.75;8.63;;;435.40;2048.00;;;;;;4936897;29;20024;-78
2021/09/12 04:00:03;;;;;;;15.05;8.43;;;435.30;2073.60;;;;;;4936819;29;20027;-83
2021/09/12 04:02:29;;;;;;;14.38;8.68;;;435.40;2073.60;;;;;;4936939;29;20039;-82
2021/09/12 04:04:55;;;;;;;18.48;8.75;;;435.30;2048.00;;;;;;4920049;29;20040;-82
2021/09/12 04:07:21;;;;;;;11.75;8.57;;;435.30;2048.00;;;;;;4932522;29;20055;-84
2021/09/12 04:09:46;;;;;;;12.07;8.68;;;435.30;2022.40;;;;;;4932464;29;20470;-82
2021/09/12 04:12:12;;;;;;;13.77;8.25;;;435.30;2022.40;;;;;;4900008;29;20056;-82
2021/09/12 04:14:38;;;;;;;14.52;8.88;;;435.40;2048.00;;;;;;4913643;29;20019;-78
2021/09/12 04:17:03;;;;;;;13.00;8.15;;;435.50;2022.40;;;;;;4919570;29;20115;-80
2021/09/12 04:19:29;;;;;;;21.25;8.70;;;435.60;1996.80;;;;;;4919523;29;20051;-77
2021/09/12 04:21:55;;;;;;;14.80;8.65;;;435.60;2022.40;;;;;;4919502;29;20139;-82
2021/09/12 04:24:21;;;;;;;16.95;8.38;;;435.60;1996.80;;;;;;4919447;29;20028;-77
2021/09/12 04:26:47;;;;;;;20.20;9.20;;;435.70;2022.40;;;;;;4936194;29;20040;-78
2021/09/12 04:29:13;;;;;;;13.25;8.63;;;435.60;2022.40;;;;;;4906720;29;20028;-85
2021/09/12 04:31:38;;;;;;;13.38;8.15;;;435.50;2073.60;;;;;;4916069;29;20098;-77
2021/09/12 04:34:04;;;;;;;13.82;9.40;;;435.50;2073.60;;;;;;4917393;29;20037;-77
2021/09/12 04:36:30;;;;;;;13.07;8.52;;;435.40;2099.20;;;;;;4917260;29;20024;-78
2021/09/12 04:38:56;;;;;;;13.43;8.15;;;435.50;2099.20;;;;;;4917134;29;20096;-81
2021/09/12 04:41:21;;;;;;;14.95;9.20;;;435.50;2099.20;;;;;;4917271;29;20032;-85
2021/09/12 04:43:47;;;;;;;15.48;8.52;;;435.60;2073.60;;;;;;4900312;29;20107;-77
2021/09/12 04:46:13;;;;;;;16.05;8.85;;;435.60;2048.00;;;;;;4917100;29;20559;-77
2021/09/12 04:48:39;;;;;;;12.82;8.50;;;435.70;2048.00;;;;;;4915679;29;20040;-78
2021/09/12 04:51:05;;;;;;;16.33;7.78;;;435.80;2022.40;;;;;;4917243;29;20032;-81
2021/09/12 04:53:30;;;;;;;19.45;8.63;;;435.80;2022.40;;;;;;4917166;29;20052;-84
2021/09/12 04:55:56;;;;;;;20.08;8.35;;;435.90;2022.40;;;;;;4917052;29;20036;-80
2021/09/12 04:58:22;;;;;;;13.63;9.23;;;435.90;2022.40;;;;;;4916911;29;20431;-85
2021/09/12 05:00:47;;;;;;;16.77;8.32;;;435.90;1996.80;;;;;;4915640;29;20043;-78
2021/09/12 05:03:13;;;;;;;17.90;9.48;;;436.00;1996.80;;;;;;4915566;29;20558;-77
2021/09/12 05:05:39;;;;;;;14.10;9.25;;;436.00;1996.80;;;;;;4916920;29;20474;-78
2021/09/12 05:08:05;;;;;;;22.08;8.98;;;436.10;1996.80;;;;;;4907248;29;20024;-79
2021/09/12 05:10:31;;;;;;;19.48;9.20;;;460.80;1996.80;;;;;;4898019;29;20025;-85
2021/09/12 05:12:57;;;;;;;13.55;9.02;;;460.80;2022.40;;;;;;4883617;29;20044;-78
2021/09/12 05:15:22;;;;;;;20.27;9.50;;;460.80;2022.40;;;;;;4897971;29;20049;-87
2021/09/12 05:17:48;;;;;;;17.50;9.05;;;436.10;1996.80;;;;;;4881159;29;20372;-78
2021/09/12 05:20:14;;;;;;;17.50;9.77;;;436.00;1996.80;;;;;;4881367;29;20040;-79
2021/09/12 05:22:41;;;;;;;18.75;9.02;;;436.10;2022.40;;;;;;4881385;29;20036;-77
2021/09/12 05:25:08;;;;;;;21.77;9.57;;;436.00;2022.40;;;;;;4901634;29;20032;-77
2021/09/12 05:27:33;;;;;;;15.07;9.63;;;435.90;2022.40;;;;;;4884824;29;20036;-80
2021/09/12 05:29:59;;;;;;;22.33;9.80;;;436.10;2022.40;;;;;;4901450;29;20032;-78
2021/09/12 05:32:25;;;;;;;18.40;9.77;;;436.10;2048.00;;;;;;4901567;29;20111;-85
2021/09/12 05:34:51;;;;;;;26.20;10.25;;;460.80;2048.00;;;;;;4901728;29;20069;-82
2021/09/12 05:37:16;;;;;;;17.25;10.45;;;436.10;2022.40;;;;;;4884880;29;20032;-86
2021/09/12 05:39:42;;;;;;;16.10;10.88;;;436.10;2022.40;;;;;;4901721;29;20032;-78
2021/09/12 05:42:08;;;;;;;21.85;11.55;;;436.10;2022.40;;;;;;4884670;29;20157;-86
2021/09/12 05:44:34;;;;;;;20.13;10.63;;;460.80;2022.40;;;;;;4901477;29;20029;-82
2021/09/12 05:46:59;;;;;;;26.70;11.68;;;460.80;2022.40;;;;;;4901210;29;20036;-78
2021/09/12 05:49:25;;;;;;;17.30;10.48;;;460.90;2048.00;;;;;;4901254;29;20024;-79
2021/09/12 05:51:51;;;;;;;19.83;12.02;;;461.00;2022.40;;;;;;4884772;29;20028;-78
2021/09/12 05:54:17;;;;;;;20.42;11.55;;;461.30;1996.80;;;;;;4901191;29;20024;-83
2021/09/12 05:56:43;;;;;;;25.85;13.00;;;461.40;1971.20;;;;;;4902636;29;20387;-78
2021/09/12 05:59:10;;;;;;;28.67;12.13;;;461.50;1971.20;;;;;;4909737;29;20080;-78
2021/09/12 06:01:36;;;;;;;24.10;14.45;;;461.50;1996.80;;;;;;4910607;29;20020;-79
2021/09/12 06:04:02;;;;;;;20.63;13.75;;;461.50;1971.20;;;;;;4905737;29;20108;-81
2021/09/12 06:06:27;;;;;;;21.90;14.23;;;461.50;1971.20;;;;;;4900793;29;20056;-82
2021/09/12 06:08:53;;;;;;;23.25;13.02;;;461.60;1971.20;;;;;;4899756;29;20478;-79
2021/09/12 06:11:19;;;;;;;23.17;14.25;;;461.70;1996.80;;;;;;4919446;29;20474;-76
2021/09/12 06:13:44;;;;;;;38.45;22.10;;;486.50;1971.20;;;;;;4902520;29;20032;-79
2021/09/12 06:16:10;;;;;;;23.70;13.18;;;486.70;1971.20;;;;;;4919846;29;20032;-80
2021/09/12 06:18:36;;;;;;;29.30;13.02;;;486.80;1996.80;;;;;;4918640;29;20024;-76
2021/09/12 06:21:03;;;;;;;24.80;12.70;;;486.90;1996.80;;;;;;4918040;29;20135;-77
2021/09/12 06:23:30;;;;;;;25.83;11.55;;;487.00;1945.60;;;;;;4919434;29;20027;-78
2021/09/12 06:25:56;;;;;;;21.92;11.25;;;487.20;1920.00;;;;;;4901792;29;20079;-78
2021/09/12 06:28:22;;;;;;;22.50;11.15;;;487.30;1894.40;;;;;;4919400;29;20025;-79
2021/09/12 06:30:48;;;;;;;18.65;10.38;;;512.00;1868.80;;;;;;4918925;29;20047;-80
2021/09/12 06:33:14;;;;;;;19.55;11.48;;;512.10;1868.80;;;;;;4902255;29;20044;-80
2021/09/12 06:35:40;;;;;;;21.25;10.45;;;512.30;1920.00;;;;;;4901358;29;20566;-78
2021/09/12 06:38:06;;;;;;;21.92;10.50;;;512.50;1920.00;;;;;;4902444;29;20032;-79
2021/09/12 06:40:32;;;;;;;14.93;9.32;;;512.60;1894.40;;;;;;4919183;29;20028;-81
2021/09/12 06:42:59;;;;;;;17.77;10.05;;;512.80;1894.40;;;;;;4902051;29;20056;-80
2021/09/12 06:45:26;;;;;;;18.52;10.10;;;512.90;1868.80;;;;;;4918991;29;20028;-78
2021/09/12 06:47:53;;;;;;;19.33;9.32;;;537.70;1894.40;;;;;;4923960;29;20064;-79
2021/09/12 06:50:23;;;;;;;13.15;8.70;;;537.80;1894.40;;;;;;4938363;29;20083;-77
2021/09/12 06:52:49;;;;;;;16.08;11.05;;;538.00;1868.80;;;;;;4938303;29;20023;-78
2021/09/12 06:55:15;;;;;;;24.20;10.38;;;538.00;1920.00;;;;;;4913566;29;20499;-81
2021/09/12 06:57:41;;;;;;;20.15;10.35;;;538.20;1894.40;;;;;;4891561;29;20029;-81
2021/09/12 07:00:09;;;;;;;17.52;10.25;;;538.30;1894.40;;;;;;4891539;29;20043;-81
2021/09/12 07:02:36;;;;;;;19.35;9.93;;;538.30;1894.40;;;;;;4900441;29;20115;-82
2021/09/12 07:05:04;;;;;;;15.57;9.15;;;538.50;1868.80;;;;;;4883320;29;20032;-82
2021/09/12 07:07:30;;;;;;;18.88;9.75;;;563.30;1843.20;;;;;;4905135;29;20482;-80
2021/09/12 07:09:55;;;;;;;17.17;10.15;;;563.30;1843.20;;;;;;4902041;29;20119;-77
2021/09/12 07:12:21;;;;;;;21.00;9.90;;;563.40;1868.80;;;;;;4917278;29;20058;-77
2021/09/12 07:14:47;;;;;;;19.08;9.25;;;563.50;1868.80;;;;;;4918578;29;20025;-80
2021/09/12 07:17:13;;;;;;;18.73;8.52;;;563.60;1868.80;;;;;;4901389;29;20039;-82
2021/09/12 07:19:39;;;;;;;17.90;9.85;;;563.60;1868.80;;;;;;4918657;29;20020;-76
2021/09/12 07:22:05;;;;;;;18.95;9.23;;;563.70;1817.60;;;;;;4918889;29;20080;-81
2021/09/12 07:24:32;;;;;;;18.67;10.35;;;563.90;1843.20;;;;;;4918907;29;20024;-85
2021/09/12 07:26:58;;;;;;;21.75;9.88;;;564.10;1817.60;;;;;;4918304;29;20036;-77
2021/09/12 07:29:24;;;;;;;16.98;10.00;;;588.80;1843.20;;;;;;4918424;29;20035;-77
2021/09/12 07:31:50;;;;;;;18.30;9.50;;;588.90;1766.40;;;;;;4918428;29;20032;-77
2021/09/12 07:34:16;;;;;;;23.98;10.35;;;589.00;1766.40;;;;;;4918552;29;20036;-81
2021/09/12 07:36:42;;;;;;;17.90;9.50;;;589.20;1740.80;;;;;;4909965;29;20029;-83
2021/09/12 07:39:08;;;;;;;18.20;9.52;;;589.20;1715.20;;;;;;4908917;29;20075;-80
2021/09/12 07:41:36;;;;;;;21.23;10.30;;;589.30;1715.20;;;;;;4909593;29;20020;-84
2021/09/12 07:44:02;;;;;;;26.40;11.27;;;589.30;1740.80;;;;;;4915198;29;20363;-83
2021/09/12 07:46:28;;;;;;;32.72;11.10;;;589.30;1715.20;;;;;;4917841;29;20043;-76
2021/09/12 07:48:53;;;;;;;23.60;11.23;;;589.50;1689.60;;;;;;4905778;29;20029;-76
2021/09/12 07:51:19;;;;;;;22.08;9.98;;;589.60;1689.60;;;;;;4899598;29;20032;-86
2021/09/12 07:53:45;;;;;;;19.58;10.18;;;589.60;1664.00;;;;;;4899478;29;20039;-77
2021/09/12 07:56:11;;;;;;;20.67;9.77;;;589.70;1638.40;;;;;;4899402;29;20021;-83
2021/09/12 07:58:36;;;;;;;21.20;9.48;;;614.40;1664.00;;;;;;4899342;29;20040;-87
2021/09/12 08:01:02;;;;;;;17.15;8.75;;;614.50;1612.80;;;;;;4899023;29;20061;-84
2021/09/12 08:03:28;;;;;;;18.60;7.75;;;614.60;1612.80;;;;;;4882272;29;20355;-80
2021/09/12 08:05:54;;;;;;;11.00;6.78;;;614.70;1612.80;;;;;;4881987;29;20044;-83
2021/09/12 08:08:19;;;;;;;12.98;7.95;;;614.80;1612.80;;;;;;4893810;29;20115;-84
2021/09/12 08:10:46;;;;;;;15.95;8.27;;;614.80;1587.20;;;;;;4932347;29;20025;-76
2021/09/12 08:13:12;;;;;;;14.75;7.47;;;614.80;1561.60;;;;;;4917730;29;20043;-77
2021/09/12 08:15:38;;;;;;;22.65;10.20;;;614.80;1612.80;;;;;;4917862;29;20036;-83
2021/09/12 08:18:05;;;;;;;13.48;7.35;;;614.90;1561.60;;;;;;4900752;29;20024;-77
2021/09/12 08:20:30;;;;;;;12.30;6.70;;;614.90;1587.20;;;;;;4917721;29;20432;-83
2021/09/12 08:22:56;;;;;;;9.80;6.28;;;615.00;1587.20;;;;;;4917788;29;20061;-80
2021/09/12 08:25:22;;;;;;;13.38;4.97;;;615.20;1536.00;;;;;;4900723;29;20363;-80
2021/09/12 08:27:47;;;;;;;9.52;5.63;;;615.20;1536.00;;;;;;4917505;29;20036;-83
2021/09/12 08:30:13;;;;;;;8.85;4.88;;;615.30;1561.60;;;;;;4917502;29;20088;-78
2021/09/12 08:32:40;;;;;;;8.93;5.78;;;640.00;1536.00;;;;;;4917249;29;20378;-78
2021/09/12 08:35:06;;;;;;;15.50;6.13;;;640.00;1510.40;;;;;;4900506;29;20528;-81
2021/09/12 08:37:34;;;;;;;11.98;5.03;;;640.10;1484.80;;;;;;4899594;29;20036;-78
2021/09/12 08:39:59;;;;;;;9.25;4.82;;;640.20;1510.40;;;;;;4916490;29;20027;-83
2021/09/12 08:42:25;;;;;;;12.05;5.13;;;640.40;1510.40;;;;;;4917204;29;20024;-79
2021/09/12 08:44:52;;;;;;;10.52;5.28;;;640.50;1459.20;;;;;;4916373;29;20032;-84
2021/09/12 08:47:18;;;;;;;9.18;5.13;;;640.60;1433.60;;;;;;4911787;29;20036;-80
2021/09/12 08:49:47;;;;;;;8.45;4.80;;;640.60;1433.60;;;;;;4891462;29;20028;-76
2021/09/12 08:52:14;;;;;;;8.35;4.93;;;640.70;1433.60;;;;;;4910247;29;20033;-78
2021/09/12 08:54:40;;;;;;;10.35;5.50;;;640.80;1408.00;;;;;;4914086;29;20064;-78
2021/09/12 08:57:06;;;;;;;14.55;6.43;;;665.60;1408.00;;;;;;4908393;29;20025;-79
2021/09/12 08:59:34;;;;;;;7.35;4.72;;;665.60;1433.60;;;;;;4909555;29;20032;-79
2021/09/12 09:02:02;;;;;;;12.43;5.38;;;665.70;1408.00;;;;;;4905575;29;20112;-78
2021/09/12 09:04:30;;;;;;;9.48;5.88;;;665.80;1382.40;;;;;;4910815;29;20093;-80
2021/09/12 09:07:14;;;;;;;12.75;4.95;;;666.00;1408.00;;;;;;4925923;29;20050;-85
2021/09/12 09:09:45;;;;;;;10.90;4.60;;;666.20;1382.40;;;;;;4910182;29;20020;-80
2021/09/12 09:12:34;;;;;;;9.80;5.07;;;666.20;1331.20;;;;;;4907316;29;20048;-84
2021/09/12 09:15:08;;;;;;;13.57;5.75;;;666.50;1305.60;;;;;;4909345;29;20028;-84
2021/09/12 09:17:42;;;;;;;8.73;4.68;;;666.50;1331.20;;;;;;4914421;29;20044;-89
2021/09/12 09:20:10;;;;;;;9.40;5.13;;;691.20;1331.20;;;;;;4892245;29;20030;-85
2021/09/12 09:22:38;;;;;;;11.80;4.70;;;691.30;1305.60;;;;;;4890002;29;20535;-79
2021/09/12 09:25:16;;;;;;;12.68;4.95;;;691.40;1331.20;;;;;;4911118;29;20104;-84
2021/09/12 09:28:04;;;;;;;12.05;5.72;;;691.50;1280.00;;;;;;4908478;29;20044;-84
2021/09/12 09:30:32;;;;;;;9.65;4.93;;;691.60;1254.40;;;;;;4894290;29;20366;-77
2021/09/12 09:33:22;;;;;;;8.50;5.07;;;691.60;1254.40;;;;;;4920337;29;20060;-85
2021/09/12 09:36:04;;;;;;;14.73;6.07;;;691.80;1305.60;;;;;;4918614;29;20037;-85
2021/09/12 09:38:33;;;;;;;10.18;5.00;;;691.90;1254.40;;;;;;4885057;29;20021;-77
2021/09/12 09:41:06;;;;;;;10.77;4.28;;;691.90;1203.20;;;;;;4917236;29;20356;-80
2021/09/12 09:43:40;;;;;;;9.93;5.28;;;692.00;1228.80;;;;;;4910315;29;20028;-83
2021/09/12 09:46:06;;;;;;;7.10;4.32;;;716.90;1254.40;;;;;;4880951;29;20106;-84
2021/09/12 09:48:34;;;;;;;7.97;4.95;;;717.00;1228.80;;;;;;4900568;29;20043;-78
2021/09/12 09:51:04;;;;;;;9.18;5.57;;;717.10;1177.60;;;;;;4905223;29;20033;-80
2021/09/12 09:53:40;;;;;;;9.27;4.75;;;717.20;1177.60;;;;;;4897242;29;20083;-83
2021/09/12 09:56:06;;;;;;;7.53;5.40;;;717.30;1177.60;;;;;;4881528;29;20045;-92
2021/09/12 09:58:33;;;;;;;8.38;4.13;;;717.40;1152.00;;;;;;4898290;29;20518;-86
2021/09/12 10:01:01;;;;;;;5.75;4.15;;;717.50;1126.40;;;;;;4880887;29;20044;-89
2021/09/12 10:03:28;;;;;;;10.32;5.15;;;717.60;1152.00;;;;;;4910477;29;20135;-80
2021/09/12 10:05:54;;;;;;;20.33;12.07;;;717.70;1100.80;;;;;;4916674;29;20107;-80
2021/09/12 10:08:20;;;;;;;9.35;6.47;;;742.50;1152.00;;;;;;4904697;29;20135;-82
2021/09/12 10:10:46;;;;;;;8.32;5.43;;;742.50;1152.00;;;;;;4916655;29;20066;-88
2021/09/12 10:13:13;;;;;;;13.50;4.45;;;742.80;1152.00;;;;;;4919476;29;20482;-81
2021/09/12 10:15:40;;;;;;;9.90;4.75;;;742.90;1126.40;;;;;;4929819;29;20023;-79
2021/09/12 10:18:09;;;;;;;8.32;5.38;;;743.00;1075.20;;;;;;4938209;29;20854;-80
2021/09/12 10:20:37;;;;;;;5.25;3.95;;;743.10;1049.60;;;;;;4921260;29;20071;-79
2021/09/12 10:23:06;;;;;;;19.33;8.75;;;743.20;1075.20;;;;;;4937639;29;20071;-81
2021/09/12 10:25:52;;;;;;;9.73;4.15;;;743.30;1049.60;;;;;;4938362;29;20024;-85
2021/09/12 10:28:33;;;;;;;6.13;3.97;;;743.30;1049.60;;;;;;4884255;29;20057;-83
2021/09/12 10:31:00;;;;;;;10.10;3.90;;;768.00;1024.00;;;;;;4901967;29;20583;-80
2021/09/12 10:33:28;;;;;;;16.50;4.97;;;743.30;1049.60;;;;;;4907316;29;20040;-81
2021/09/12 10:36:00;;;;;;;6.18;3.80;;;768.30;1024.00;;;;;;4919280;29;20031;-80
2021/09/12 10:38:39;;;;;;;15.38;5.25;;;768.40;998.40;;;;;;4918209;29;20028;-79
2021/09/12 10:41:13;;;;;;;6.70;4.32;;;768.60;1049.60;;;;;;4908449;29;20040;-85
2021/09/12 10:43:47;;;;;;;13.40;4.85;;;768.50;1024.00;;;;;;4902275;29;20487;-81
2021/09/12 10:46:12;;;;;;;6.40;3.25;;;768.70;1024.00;;;;;;4899816;29;20458;-80
2021/09/12 10:48:40;;;;;;;9.00;4.70;;;768.70;972.80;;;;;;4899774;29;20052;-78
2021/09/12 10:51:17;;;;;;;10.32;5.22;;;768.80;998.40;;;;;;4899915;29;20100;-79
2021/09/12 10:53:43;;;;;;;9.57;4.60;;;768.80;1024.00;;;;;;4902597;29;20035;-80
2021/09/12 10:56:13;;;;;;;8.20;4.13;;;768.90;998.40;;;;;;4930401;29;20035;-79
2021/09/12 10:58:39;;;;;;;7.97;3.95;;;793.60;998.40;;;;;;4927035;29;20066;-78
2021/09/12 11:01:07;;;;;;;8.85;4.40;;;793.70;998.40;;;;;;4925993;29;20108;-78
2021/09/12 11:03:34;;;;;;;9.40;4.47;;;793.70;1024.00;;;;;;4927850;29;20480;-78
2021/09/12 11:06:01;;;;;;;11.25;4.43;;;793.70;1024.00;;;;;;4917477;29;20032;-80
2021/09/12 11:08:38;;;;;;;7.68;4.07;;;793.90;972.80;;;;;;4917787;29;20042;-79
2021/09/12 11:11:06;;;;;;;9.75;4.80;;;794.00;972.80;;;;;;4926241;29;20085;-79
2021/09/12 11:13:32;;;;;;;10.13;6.13;;;794.20;972.80;;;;;;4899584;29;20085;-82
2021/09/12 11:16:25;;;;;;;6.43;4.68;;;794.20;998.40;;;;;;4906835;29;20039;-82
2021/09/12 11:18:54;;;;;;;8.07;3.25;;;794.20;972.80;;;;;;4897523;29;20044;-82
2021/09/12 11:21:38;;;;;;;7.65;4.10;;;794.30;947.20;;;;;;4911455;29;20036;-83
2021/09/12 11:24:09;;;;;;;8.25;4.40;;;794.50;998.40;;;;;;4923245;29;20031;-83
2021/09/12 11:26:44;;;;;;;5.95;3.60;;;794.50;998.40;;;;;;4924832;29;20107;-84
2021/09/12 11:29:13;;;;;;;7.32;3.65;;;794.20;972.80;;;;;;4926598;29;20028;-83
2021/09/12 11:31:41;;;;;;;9.25;4.20;;;794.30;972.80;;;;;;4925045;29;20028;-84
2021/09/12 11:34:07;;;;;;;9.02;3.83;;;794.40;972.80;;;;;;4918184;29;20028;-83
2021/09/12 11:36:58;;;;;;;11.23;3.72;;;794.40;921.60;;;;;;4917600;29;20048;-82
2021/09/12 11:39:27;;;;;;;4.93;3.65;;;794.40;921.60;;;;;;4918004;29;20106;-82
2021/09/12 11:41:58;;;;;;;5.40;3.55;;;819.30;921.60;;;;;;4916541;29;20032;-83
2021/09/12 11:44:34;;;;;;;11.50;4.10;;;819.20;998.40;;;;;;4917514;29;20035;-85
2021/09/12 11:47:03;;;;;;;28.05;4.47;;;819.30;947.20;;;;;;4916573;29;20541;-82
2021/09/12 11:49:29;;;;;;;8.60;4.03;;;819.40;896.00;;;;;;4912160;29;20029;-82
2021/09/12 11:51:55;;;;;;;5.00;3.60;;;819.30;947.20;;;;;;4916060;29;20067;-81
2021/09/12 11:54:32;;;;;;;6.55;3.88;;;819.50;896.00;;;;;;4893271;29;20447;-85
2021/09/12 11:57:03;;;;;;;11.27;4.75;;;819.50;896.00;;;;;;4936913;29;20031;-78
2021/09/12 11:59:31;;;;;;;9.35;4.45;;;819.50;947.20;;;;;;4913869;29;20020;-82
2021/09/12 12:01:58;;;;;;;10.18;3.85;;;819.40;921.60;;;;;;4912309;29;20035;-83
2021/09/12 12:04:26;;;;;;;6.78;3.60;;;819.50;921.60;;;;;;4917164;29;20496;-79
2021/09/12 12:06:55;;;;;;;7.03;4.40;;;819.60;921.60;;;;;;4916600;29;20035;-79
2021/09/12 12:09:31;;;;;;;10.43;4.57;;;819.50;870.40;;;;;;4913514;29;20103;-81